createdAt,value
2018-04-20T03:24:45.035Z,59.24
2018-04-20T03:25:27.399Z,58.86
2018-04-20T03:26:09.849Z,57.48
2018-04-20T03:26:52.098Z,57.77
2018-04-20T03:27:34.609Z,57.42
2018-04-20T03:28:16.991Z,57.13
2018-04-20T03:28:59.395Z,57.42
2018-04-20T03:29:41.786Z,57.51
2018-04-20T03:30:24.078Z,57.68
2018-04-20T03:31:06.623Z,57.6
2018-04-20T03:31:49.016Z,57.99
2018-04-20T03:32:31.394Z,57.8
2018-04-20T03:33:13.781Z,57.9
2018-04-20T03:33:56.219Z,57.9
2018-04-20T03:34:38.613Z,57.9
2018-04-20T03:35:21.023Z,57.8
2018-04-20T03:36:03.437Z,57.99
2018-04-20T03:38:23.340Z,57.6
2018-04-20T03:39:03.850Z,57.8
2018-04-20T03:39:44.363Z,57.8
2018-04-20T03:40:24.886Z,57.7
2018-04-20T03:41:05.404Z,57.9
2018-04-20T03:41:45.946Z,57.9
2018-04-20T03:42:26.466Z,57.9
2018-04-20T03:43:06.991Z,58.18
2018-04-20T03:43:47.497Z,58.37
2018-04-20T03:44:28.029Z,58.09
2018-04-20T03:45:08.553Z,57.97
2018-04-20T03:45:49.077Z,57.8
2018-04-20T03:46:29.591Z,57.7
2018-04-20T03:47:10.109Z,57.99
2018-04-20T03:47:50.635Z,57.87
2018-04-20T03:48:31.168Z,57.97
2018-04-20T03:49:11.727Z,58.06
2018-04-20T03:49:52.181Z,58.06
2018-04-20T03:50:32.704Z,58.25
2018-04-20T03:51:13.221Z,58.35
2018-04-20T03:51:53.756Z,57.9
2018-04-20T03:52:34.317Z,58.45
2018-04-20T03:53:14.754Z,58.92
2018-04-20T03:53:55.214Z,58.92
2018-04-20T03:54:35.715Z,59.02
2018-04-20T03:55:16.205Z,58.54
2018-04-20T03:55:56.719Z,58.45
2018-04-20T03:56:37.239Z,58.64
2018-04-20T03:57:17.768Z,58.06
2018-04-20T03:57:58.309Z,58.06
2018-04-20T03:58:38.765Z,59.02
2018-04-20T03:59:19.258Z,58.83
2018-04-20T03:59:59.747Z,58.92
2018-04-20T04:00:40.214Z,58.92
2018-04-20T04:01:20.707Z,59.22
2018-04-20T04:02:01.237Z,58.92
2018-04-20T04:02:41.693Z,59.02
2018-04-20T04:03:22.156Z,59.5
2018-04-20T04:04:02.635Z,59.41
2018-04-20T04:04:43.110Z,59.31
2018-04-20T04:05:23.611Z,59.02
2018-04-20T04:06:04.230Z,59.02
2018-04-20T04:06:44.729Z,59.12
2018-04-20T04:07:25.240Z,59.12
2018-04-20T04:08:05.749Z,59.41
2018-04-20T04:08:46.268Z,59.31
2018-04-20T04:09:26.820Z,59.31
2018-04-20T04:10:07.271Z,59.31
2018-04-20T04:10:47.735Z,59.31
2018-04-20T04:11:28.231Z,59.31
2018-04-20T04:12:08.684Z,59.31
2018-04-20T04:12:49.372Z,59.02
2018-04-20T04:13:29.821Z,58.92
2018-04-20T04:14:10.296Z,59.02
2018-04-20T04:14:50.822Z,59.31
2018-04-20T04:15:31.291Z,59.31
2018-04-20T04:16:11.822Z,59.02
2018-04-20T04:16:52.339Z,59.41
2018-04-20T04:17:32.830Z,59.41
2018-04-20T04:18:13.329Z,59.22
2018-04-20T04:18:53.839Z,58.92
2018-04-20T04:19:34.347Z,59.31
2018-04-20T04:20:14.853Z,59.31
2018-04-20T04:20:55.303Z,58.92
2018-04-20T04:21:35.816Z,59.02
2018-04-20T04:22:16.289Z,59.22
2018-04-20T04:22:56.754Z,59.22
2018-04-20T04:23:37.289Z,59.41
2018-04-20T04:24:17.752Z,59.5
2018-04-20T04:24:58.283Z,59.41
2018-04-20T04:25:39.624Z,60.17
2018-04-20T04:26:20.116Z,59.99
2018-04-20T04:27:00.633Z,59.99
2018-04-20T04:27:41.149Z,60.08
2018-04-20T04:28:21.670Z,60.43
2018-04-20T04:29:02.199Z,60.56
2018-04-20T04:29:42.762Z,60.37
2018-04-20T04:30:23.244Z,60.37
2018-04-20T04:31:03.767Z,60.08
2018-04-20T04:31:44.289Z,60.08
2018-04-20T04:32:24.785Z,60.37
2018-04-20T04:33:05.298Z,60.14
2018-04-20T04:33:45.792Z,60.14
2018-04-20T04:34:26.291Z,60.43
2018-04-20T04:35:06.741Z,60.43
2018-04-20T04:35:47.251Z,60.63
2018-04-20T04:36:27.748Z,60.24
2018-04-20T04:37:08.289Z,60.24
2018-04-20T04:37:48.814Z,61.01
2018-04-20T04:38:29.381Z,61.01
2018-04-20T04:39:09.848Z,61.2
2018-04-20T04:39:50.362Z,60.91
2018-04-20T04:40:30.941Z,61.3
2018-04-20T04:41:11.389Z,61.01
2018-04-20T04:41:51.904Z,61.2
2018-04-20T04:42:32.424Z,61.2
2018-04-20T04:43:13.013Z,61.2
2018-04-20T04:43:53.417Z,60.91
2018-04-20T04:44:33.903Z,61.49
2018-04-20T04:45:14.419Z,61.2
2018-04-20T04:45:54.916Z,60.91
2018-04-20T04:46:35.395Z,60.72
2018-04-20T04:47:15.885Z,61.01
2018-04-20T04:47:56.444Z,61.4
2018-04-20T04:48:36.880Z,61.46
2018-04-20T04:49:17.338Z,61.3
2018-04-20T04:49:57.887Z,61.11
2018-04-20T04:50:38.360Z,60.82
2018-04-20T04:51:18.896Z,60.72
2018-04-20T04:51:59.446Z,61.3
2018-04-20T04:52:39.956Z,60.91
2018-04-20T04:53:20.474Z,61.3
2018-04-20T04:54:00.965Z,61.11
2018-04-20T04:54:41.444Z,60.63
2018-04-20T04:55:21.903Z,60.91
2018-04-20T04:56:02.384Z,61.2
2018-04-20T04:56:42.923Z,61.3
2018-04-20T04:57:23.419Z,60.63
2018-04-20T04:58:03.907Z,60.91
2018-04-20T04:58:44.447Z,60.72
2018-04-20T04:59:25.142Z,60.53
2018-04-20T05:00:05.619Z,60.34
2018-04-20T05:00:46.131Z,60.05
2018-04-20T05:01:26.618Z,60.53
2018-04-20T05:02:07.159Z,60.43
2018-04-20T05:02:47.611Z,60.53
2018-04-20T05:03:28.106Z,60.53
2018-04-20T05:04:08.629Z,60.24
2018-04-20T05:04:49.156Z,60.24
2018-04-20T05:05:29.595Z,60.63
2018-04-20T05:06:10.144Z,61.11
2018-04-20T05:06:50.613Z,61.2
2018-04-20T05:07:31.109Z,60.82
2018-04-20T05:08:11.599Z,61.01
2018-04-20T05:08:52.109Z,60.43
2018-04-20T05:09:32.601Z,60.34
2018-04-20T05:10:13.106Z,60.14
2018-04-20T05:10:53.645Z,60.24
2018-04-20T05:11:34.432Z,60.43
2018-04-20T05:12:14.639Z,60.14
2018-04-20T05:12:55.156Z,60.34
2018-04-20T05:13:35.680Z,60.34
2018-04-20T05:14:16.263Z,60.05
2018-04-20T05:14:56.705Z,59.76
2018-04-20T05:15:37.257Z,59.95
2018-04-20T05:16:17.786Z,59.95
2018-04-20T05:16:58.293Z,59.95
2018-04-20T05:17:38.829Z,62.55
2018-04-20T05:18:19.342Z,67.54
2018-04-20T05:18:59.869Z,65.53
2018-04-20T05:19:40.377Z,66.97
2018-04-20T05:20:20.925Z,69.75
2018-04-20T05:21:01.467Z,70.9
2018-04-20T05:21:41.997Z,70.94
2018-04-20T05:22:22.510Z,68.06
2018-04-20T05:23:03.050Z,64.56
2018-04-20T05:23:43.574Z,62.93
2018-04-20T05:24:24.075Z,64.12
2018-04-20T05:25:04.577Z,65.37
2018-04-20T05:25:45.072Z,69.6
2018-04-20T05:26:25.582Z,72.48
2018-04-20T05:27:06.089Z,70.84
2018-04-20T05:27:46.551Z,72
2018-04-20T05:28:27.017Z,70.94
2018-04-20T05:29:07.526Z,73.83
2018-04-20T05:29:48.077Z,69.89
2018-04-20T05:30:30.602Z,66.04
2018-04-20T05:32:54.224Z,71.71
2018-04-20T05:33:36.255Z,69.6
2018-04-20T05:34:16.811Z,70.88
2018-04-20T05:34:57.296Z,71.52
2018-04-20T05:35:38.019Z,71.14
2018-04-20T05:36:18.478Z,69.79
2018-04-20T05:36:58.931Z,70.17
2018-04-20T05:37:39.661Z,69.92
2018-04-20T05:38:20.133Z,69.5
2018-04-20T05:39:00.621Z,69.15
2018-04-20T05:39:41.139Z,68.15
2018-04-20T05:40:21.700Z,69.53
2018-04-20T05:41:02.173Z,70.98
2018-04-20T05:41:42.643Z,69.34
2018-04-20T05:42:23.363Z,66.36
2018-04-20T05:43:03.882Z,65.2
2018-04-20T05:43:44.871Z,66.94
2018-04-20T05:44:25.360Z,66.46
2018-04-20T05:45:05.913Z,65.97
2018-04-20T05:45:46.337Z,64.25
2018-04-20T05:46:26.853Z,64.34
2018-04-20T05:47:07.321Z,65.4
2018-04-20T05:47:47.876Z,65.2
2018-04-20T05:48:28.368Z,62.9
2018-04-20T05:49:08.944Z,62.8
2018-04-20T05:49:49.379Z,64.95
2018-04-20T05:50:29.872Z,63.12
2018-04-20T05:51:10.376Z,63.12
2018-04-20T05:51:50.876Z,64.86
2018-04-20T05:52:31.417Z,68.8
2018-04-20T05:53:12.091Z,67.42
2018-04-20T05:53:52.699Z,65.11
2018-04-20T05:54:33.100Z,65.01
2018-04-20T05:55:13.636Z,65.3
2018-04-20T05:55:54.148Z,64.37
2018-04-20T05:57:16.417Z,67.13
2018-04-20T06:03:48.063Z,67.93
2018-04-20T06:04:28.592Z,68.51
2018-04-20T06:05:09.112Z,74.48
2018-04-20T06:05:49.641Z,73.9
2018-04-20T06:06:31.101Z,74.57
2018-04-20T06:07:14.213Z,68.9
2018-04-20T06:10:59.646Z,73.55
2018-04-20T06:11:40.403Z,73.07
2018-04-20T06:12:20.936Z,74.38
2018-04-20T06:13:01.455Z,71.53
2018-04-20T06:13:42.004Z,66.62
2018-04-20T06:14:22.524Z,63.34
2018-04-20T06:15:03.048Z,67.97
2018-04-20T06:15:43.590Z,69.41
2018-04-20T06:16:24.109Z,69.89
2018-04-20T06:17:04.641Z,66.62
2018-04-20T06:17:45.222Z,69.22
2018-04-20T06:18:25.715Z,71.14
2018-04-20T06:19:06.230Z,74.8
2018-04-20T06:19:46.770Z,69.99
2018-04-20T06:20:27.292Z,68
2018-04-20T06:21:07.839Z,63.15
2018-04-20T06:21:48.562Z,61.71
2018-04-20T06:22:29.102Z,72.43
2018-04-20T06:23:09.663Z,74.74
2018-04-20T06:23:50.109Z,73.58
2018-04-20T06:24:30.631Z,66.36
2018-04-20T06:25:11.142Z,63.47
2018-04-20T06:25:51.671Z,68.1
2018-04-20T06:26:32.189Z,69.06
2018-04-20T06:27:12.732Z,65.98
2018-04-20T06:27:53.278Z,68.1
2018-04-20T06:28:33.810Z,64.73
2018-04-20T06:29:14.339Z,66.65
2018-04-20T06:29:54.866Z,70.41
2018-04-20T06:30:35.415Z,69.64
2018-04-20T06:31:16.037Z,66.27
2018-04-20T06:31:56.486Z,63.18
2018-04-20T06:32:37.163Z,61.35
2018-04-20T06:33:17.666Z,59.52
2018-04-20T06:33:58.164Z,62.99
2018-04-20T06:34:38.990Z,64.43
2018-04-20T06:35:19.156Z,64.82
2018-04-20T06:35:59.678Z,65.88
2018-04-20T06:36:40.202Z,67.33
2018-04-20T06:37:20.769Z,68.68
2018-04-20T06:38:01.727Z,65.2
2018-04-20T06:38:42.249Z,64.25
2018-04-20T06:39:22.765Z,64.43
2018-04-20T06:40:03.293Z,62.6
2018-04-20T06:40:43.812Z,63.18
2018-04-20T06:41:24.350Z,65.2
2018-04-20T06:42:04.863Z,63.67
2018-04-20T06:42:45.379Z,63.31
2018-04-20T06:43:25.892Z,64.34
2018-04-20T06:44:06.452Z,64.66
2018-04-20T06:44:46.968Z,65.01
2018-04-20T06:45:27.487Z,64.76
2018-04-20T06:46:08.016Z,64.66
2018-04-20T06:46:48.541Z,63.02
2018-04-20T06:47:29.042Z,63.12
2018-04-20T06:48:09.579Z,63.41
2018-04-20T06:48:50.216Z,63.7
2018-04-20T06:49:30.724Z,63.31
2018-04-20T06:50:11.294Z,62.54
2018-04-20T06:50:51.793Z,61.51
2018-04-20T06:51:32.287Z,62.28
2018-04-20T06:52:12.824Z,66.59
2018-04-20T06:52:53.337Z,64.02
2018-04-20T06:53:33.870Z,63.44
2018-04-20T06:54:14.407Z,65.85
2018-04-20T06:54:54.922Z,64.69
2018-04-20T06:55:35.460Z,64.4
2018-04-20T06:56:15.995Z,64.79
2018-04-20T06:56:56.510Z,68.07
2018-04-20T06:57:37.014Z,69.13
2018-04-20T06:58:17.556Z,66.62
2018-04-20T06:58:58.110Z,63.54
2018-04-20T06:59:38.643Z,65.85
2018-04-20T07:00:19.176Z,65.27
2018-04-20T07:00:59.706Z,69.51
2018-04-20T07:01:40.214Z,66.43
2018-04-20T07:02:20.742Z,65.27
2018-04-20T07:03:01.241Z,66.72
2018-04-20T07:03:41.755Z,69.42
2018-04-20T07:04:22.298Z,66.91
2018-04-20T07:05:02.841Z,67.04
2018-04-20T07:05:43.301Z,68.19
2018-04-20T07:06:23.829Z,67.04
2018-04-20T07:07:04.358Z,64.82
2018-04-20T07:07:44.868Z,68.33
2018-04-20T07:08:25.373Z,69.1
2018-04-20T07:09:05.876Z,69.87
2018-04-20T07:09:46.394Z,68.43
2018-04-20T07:10:26.978Z,68.43
2018-04-20T07:11:08.245Z,66.88
2018-04-20T07:11:48.760Z,65.34
2018-04-20T07:12:29.288Z,63.5
2018-04-20T07:13:09.848Z,61.47
2018-04-20T07:13:50.300Z,60.61
2018-04-20T07:14:30.852Z,63.24
2018-04-20T07:15:11.302Z,65.56
2018-04-20T07:15:51.871Z,67.88
2018-04-20T07:16:32.333Z,68.65
2018-04-20T07:17:12.903Z,68.94
2018-04-20T07:17:53.309Z,68.55
2018-04-20T07:18:33.948Z,65.37
2018-04-20T07:19:14.491Z,63.24
2018-04-20T07:19:54.999Z,63.4
2018-04-20T07:20:35.510Z,63.4
2018-04-20T07:21:15.978Z,61.89
2018-04-20T07:21:56.465Z,62.28
2018-04-20T07:22:37.002Z,61.8
2018-04-20T07:23:17.550Z,61.12
2018-04-20T07:23:58.070Z,61.7
2018-04-20T07:24:38.535Z,64.69
2018-04-20T07:25:19.071Z,68.65
2018-04-20T07:25:59.608Z,67.59
2018-04-20T07:26:40.129Z,64.98
2018-04-20T07:27:20.628Z,63.53
2018-04-20T07:28:01.143Z,63.63
2018-04-20T07:28:41.677Z,61.89
2018-04-20T07:29:22.214Z,60.54
2018-04-20T07:30:02.770Z,61.7
2018-04-20T07:30:43.252Z,62.86
2018-04-20T07:31:23.784Z,61.99
2018-04-20T07:32:04.340Z,63.05
2018-04-20T07:32:44.878Z,63.15
2018-04-20T07:33:25.387Z,61.41
2018-04-20T07:34:06.008Z,61.99
2018-04-20T07:34:46.526Z,62.76
2018-04-20T07:35:27.064Z,63.43
2018-04-20T07:36:07.590Z,64.11
2018-04-20T07:36:48.121Z,68.65
2018-04-20T07:37:28.637Z,67.01
2018-04-20T07:38:09.169Z,61.22
2018-04-20T07:38:49.694Z,65.95
2018-04-20T07:39:30.218Z,57.93
2018-04-20T07:40:10.723Z,64.79
2018-04-20T07:40:51.265Z,63.34
2018-04-20T07:41:31.936Z,68.17
2018-04-20T07:42:12.321Z,64.4
2018-04-20T07:42:52.829Z,68.07
2018-04-20T07:43:33.353Z,64.01
2018-04-20T07:44:14.017Z,63.73
2018-04-20T07:46:05.836Z,64.24
2018-04-20T07:46:46.370Z,66.66
2018-04-20T07:47:26.896Z,63.18
2018-04-20T07:48:07.423Z,62.21
2018-04-20T07:48:47.940Z,62.7
2018-04-20T07:49:28.508Z,64.05
2018-04-20T07:50:09.026Z,65.59
2018-04-20T07:50:49.531Z,68.59
2018-04-20T07:51:30.052Z,65.88
2018-04-20T07:52:10.601Z,62.79
2018-04-20T07:52:51.121Z,62.12
2018-04-20T07:53:31.631Z,60.96
2018-04-20T07:54:12.153Z,57.87
2018-04-20T07:54:52.671Z,62.21
2018-04-20T07:55:33.187Z,64.24
2018-04-20T07:56:13.765Z,63.08
2018-04-20T07:56:54.220Z,63.47
2018-04-20T07:57:34.747Z,62.89
2018-04-20T07:58:15.250Z,60.76
2018-04-20T07:58:55.804Z,58.73
2018-04-20T07:59:36.304Z,60.09
2018-04-20T08:00:16.834Z,61.73
2018-04-20T08:00:57.375Z,59.02
2018-04-20T08:01:37.918Z,56.71
2018-04-20T08:02:18.488Z,58.06
2018-04-20T08:02:58.979Z,59.41
2018-04-20T08:03:39.496Z,59.7
2018-04-20T08:04:20.023Z,60.38
2018-04-20T08:05:00.554Z,61.15
2018-04-20T08:05:41.106Z,59.6
2018-04-20T08:06:21.644Z,60.28
2018-04-20T08:07:02.168Z,58.45
2018-04-20T08:07:42.693Z,62.5
2018-04-20T08:08:23.257Z,61.92
2018-04-20T08:09:03.734Z,65.4
2018-04-20T08:09:44.253Z,65.88
2018-04-20T08:10:24.785Z,68.68
2018-04-20T08:11:05.306Z,68.59
2018-04-20T08:11:45.823Z,65.4
2018-04-20T08:12:26.331Z,69.23
2018-04-20T08:13:06.854Z,73
2018-04-20T08:13:47.410Z,68.26
2018-04-20T08:14:27.903Z,64.53
2018-04-20T08:15:08.442Z,64.43
2018-04-20T08:15:48.970Z,65.3
2018-04-20T08:16:29.519Z,64.72
2018-04-20T08:17:10.037Z,63.56
2018-04-20T08:19:08.230Z,59.6
2018-04-20T08:19:48.769Z,57.87
2018-04-20T08:20:29.304Z,56.99
2018-04-20T08:21:09.828Z,57.38
2018-04-20T08:21:50.366Z,57.87
2018-04-20T08:22:30.985Z,58.06
2018-04-20T08:23:11.509Z,55.93
2018-04-20T08:23:52.033Z,57.77
2018-04-20T08:24:32.552Z,56.73
2018-04-20T08:25:13.061Z,57.6
2018-04-20T08:25:53.612Z,61.54
2018-04-20T08:26:34.127Z,60.11
2018-04-20T08:27:14.653Z,63.79
2018-04-20T08:27:55.190Z,65.82
2018-04-20T08:28:35.711Z,64.47
2018-04-20T08:29:16.232Z,65.14
2018-04-20T08:29:56.736Z,64.27
2018-04-20T08:30:37.265Z,57.89
2018-04-20T08:31:17.780Z,62.15
2018-04-20T08:31:58.292Z,63.53
2018-04-20T08:32:38.821Z,67.21
2018-04-20T08:33:19.346Z,68.17
2018-04-20T08:33:59.856Z,64.66
2018-04-20T08:34:40.375Z,62.92
2018-04-20T08:35:20.914Z,57.7
2018-04-20T08:36:01.446Z,55.47
2018-04-20T08:36:41.981Z,60.41
2018-04-20T08:37:22.513Z,66.5
2018-04-20T08:38:03.027Z,68.82
2018-04-20T08:38:43.562Z,67.08
2018-04-20T08:39:24.412Z,65.63
2018-04-20T08:40:04.934Z,67.94
2018-04-20T08:40:45.448Z,65.92
2018-04-20T08:41:26.009Z,66.98
2018-04-20T08:42:06.530Z,64.4
2018-04-20T08:42:47.059Z,60.63
2018-04-20T08:43:27.589Z,65.47
2018-04-20T08:44:08.102Z,65.47
2018-04-20T08:44:48.626Z,63.43
2018-04-20T08:45:29.140Z,55.47
2018-04-20T08:46:09.671Z,60.31
2018-04-20T08:46:50.176Z,67.08
2018-04-20T08:47:30.712Z,64.5
2018-04-20T08:48:11.220Z,59.66
2018-04-20T08:48:51.734Z,59.38
2018-04-20T08:49:32.268Z,69.92
2018-04-20T08:50:12.795Z,71.75
2018-04-20T08:50:53.311Z,64.69
2018-04-20T08:51:33.832Z,68.85
2018-04-20T08:52:14.371Z,63.34
2018-04-20T08:52:54.892Z,62.08
2018-04-20T08:53:35.414Z,56.25
2018-04-20T08:54:15.935Z,58.21
2018-04-20T08:54:56.461Z,56.37
2018-04-20T08:55:36.983Z,57.05
2018-04-20T08:56:17.492Z,64.89
2018-04-20T08:56:58.039Z,58.37
2018-04-20T08:57:38.558Z,60.53
2018-04-20T08:58:19.089Z,67.98
2018-04-20T08:58:59.638Z,63.34
2018-04-20T08:59:40.160Z,58.4
2018-04-20T09:00:20.675Z,57.73
2018-04-20T09:01:01.189Z,61.3
2018-04-20T09:01:41.729Z,69.53
2018-04-20T09:02:22.265Z,71.36
2018-04-20T09:03:02.781Z,60.63
2018-04-20T09:03:43.300Z,62.18
2018-04-20T09:04:23.857Z,68.17
2018-04-20T09:05:04.393Z,65.56
2018-04-20T09:05:44.974Z,61.3
2018-04-20T09:06:25.497Z,65.95
2018-04-20T09:07:06.017Z,68.27
2018-04-20T09:07:46.543Z,62.08
2018-04-20T09:08:27.069Z,56.86
2018-04-20T09:09:07.594Z,58.4
2018-04-20T09:09:48.121Z,67.98
2018-04-20T09:10:28.633Z,70.3
2018-04-20T09:11:09.173Z,67.21
2018-04-20T09:11:49.701Z,63.24
2018-04-20T09:12:30.222Z,58.4
2018-04-20T09:13:10.765Z,61.89
2018-04-20T09:13:51.272Z,63.92
2018-04-20T09:14:31.788Z,64.01
2018-04-20T09:15:12.328Z,61.5
2018-04-20T09:15:52.840Z,56.18
2018-04-20T09:16:33.359Z,57.82
2018-04-20T09:17:13.897Z,55.99
2018-04-20T09:17:54.419Z,54.05
2018-04-20T09:18:34.967Z,56.09
2018-04-20T09:19:15.486Z,61.4
2018-04-20T09:19:56.072Z,62.27
2018-04-20T09:20:36.594Z,58.5
2018-04-20T09:21:17.105Z,57.66
2018-04-20T09:21:57.628Z,59.56
2018-04-20T09:22:38.152Z,60.05
2018-04-20T09:23:18.773Z,63.82
2018-04-20T09:23:59.191Z,67.69
2018-04-20T09:24:39.681Z,69.24
2018-04-20T09:25:20.205Z,65.85
2018-04-20T09:26:00.726Z,64.01
2018-04-20T09:26:41.261Z,65.66
2018-04-20T09:27:21.784Z,70.59
2018-04-20T09:28:02.301Z,65.66
2018-04-20T09:28:42.815Z,62.66
2018-04-20T09:29:23.364Z,62.18
2018-04-20T09:30:03.916Z,61.98
2018-04-20T09:30:44.403Z,59.56
2018-04-20T09:31:24.862Z,58.31
2018-04-20T09:32:05.363Z,59.76
2018-04-20T09:32:45.840Z,60.24
2018-04-20T09:33:26.397Z,60.75
2018-04-20T09:34:06.872Z,59.5
2018-04-20T09:34:47.456Z,58.24
2018-04-20T09:36:40.604Z,55.92
2018-04-20T09:37:21.114Z,57.18
2018-04-20T09:38:01.622Z,60.75
2018-04-20T09:38:42.155Z,62.3
2018-04-20T09:39:22.705Z,62.88
2018-04-20T09:40:03.216Z,62.21
2018-04-20T09:40:43.789Z,59.4
2018-04-20T09:41:24.279Z,55.43
2018-04-20T09:42:04.805Z,53.21
2018-04-20T09:42:45.336Z,52.8
2018-04-20T09:43:25.918Z,51.93
2018-04-20T09:44:06.411Z,52.22
2018-04-20T09:44:46.930Z,52.22
2018-04-20T09:45:27.452Z,52.31
2018-04-20T09:46:07.984Z,56.7
2018-04-20T09:46:48.528Z,61.33
2018-04-20T09:47:29.045Z,59.79
2018-04-20T09:48:09.579Z,56.5
2018-04-20T09:48:50.126Z,54.17
2018-04-20T09:49:30.640Z,60.47
2018-04-20T09:50:11.164Z,56.3
2018-04-20T09:50:51.693Z,59.5
2018-04-20T09:51:32.244Z,65.69
2018-04-20T09:52:12.812Z,63.56
2018-04-20T09:52:53.334Z,67.14
2018-04-20T09:53:33.873Z,68.56
2018-04-20T09:54:14.387Z,67.33
2018-04-20T09:54:54.898Z,64.53
2018-04-20T09:55:35.435Z,62.59
2018-04-20T09:56:15.964Z,62.88
2018-04-20T09:56:56.475Z,61.53
2018-04-20T09:57:36.998Z,59.4
2018-04-20T09:58:17.544Z,63.46
2018-04-20T09:58:58.044Z,62.88
2018-04-20T09:59:38.557Z,57.46
2018-04-20T10:00:19.141Z,58.53
2018-04-20T10:00:59.691Z,59.21
2018-04-20T10:01:40.222Z,63.27
2018-04-20T10:02:20.777Z,65.69
2018-04-20T10:03:01.297Z,61.33
2018-04-20T10:03:41.807Z,57.18
2018-04-20T10:04:22.349Z,61.72
2018-04-20T10:05:02.871Z,63.27
2018-04-20T10:05:43.395Z,62.88
2018-04-20T10:06:23.912Z,63.37
2018-04-20T10:07:04.448Z,65.4
2018-04-20T10:07:44.964Z,62.98
2018-04-20T10:08:25.467Z,67.05
2018-04-20T10:09:06.009Z,61.72
2018-04-20T10:09:46.514Z,56.02
2018-04-20T10:10:27.062Z,53.89
2018-04-20T10:11:07.620Z,52.73
2018-04-20T10:11:48.164Z,52.05
2018-04-20T10:12:28.696Z,51.66
2018-04-20T10:13:09.229Z,53.21
2018-04-20T10:13:49.758Z,61.24
2018-04-20T10:14:30.316Z,62.4
2018-04-20T10:15:10.813Z,64.89
2018-04-20T10:15:51.346Z,64.43
2018-04-20T10:16:31.867Z,62.69
2018-04-20T10:17:12.388Z,61.92
2018-04-20T10:17:52.914Z,60.75
2018-04-20T10:18:33.426Z,59.4
2018-04-20T10:19:13.949Z,58.04
2018-04-20T10:19:54.489Z,53.79
2018-04-20T10:20:35.010Z,52.82
2018-04-20T10:21:15.537Z,59.21
2018-04-20T10:21:56.058Z,63.46
2018-04-20T10:22:36.577Z,64.34
2018-04-20T10:23:17.093Z,65.69
2018-04-20T10:23:57.732Z,66.63
2018-04-20T10:24:38.256Z,66.63
2018-04-20T10:25:18.775Z,68.08
2018-04-20T10:25:59.313Z,65.56
2018-04-20T10:26:39.775Z,65.27
2018-04-20T10:27:20.273Z,63.08
2018-04-20T10:28:00.803Z,54.75
2018-04-20T10:28:41.307Z,53.99
2018-04-20T10:29:21.785Z,58.63
2018-04-20T10:30:02.341Z,62.01
2018-04-20T10:30:42.813Z,58.65
2018-04-20T10:31:23.324Z,60.78
2018-04-20T10:32:03.769Z,63.4
2018-04-20T10:32:44.300Z,66.6
2018-04-20T10:33:24.819Z,64.56
2018-04-20T10:34:05.313Z,60.59
2018-04-20T10:34:45.846Z,54.57
2018-04-20T10:35:26.373Z,58.34
2018-04-20T10:36:06.887Z,56.3
2018-04-20T10:36:47.428Z,62.72
2018-04-20T10:37:27.958Z,63.4
2018-04-20T10:38:08.465Z,62.34
2018-04-20T10:38:48.979Z,63.98
2018-04-20T10:39:29.496Z,63.21
2018-04-20T10:40:10.010Z,65.63
2018-04-20T10:40:50.522Z,66.69
2018-04-20T10:41:31.063Z,64.75
2018-04-20T10:42:11.565Z,63.21
2018-04-20T10:42:52.112Z,63.11
2018-04-20T10:43:32.633Z,63.79
2018-04-20T10:44:13.160Z,61.66
2018-04-20T10:44:53.698Z,61.18
2018-04-20T10:45:34.230Z,59.33
2018-04-20T10:46:14.755Z,56.82
2018-04-20T10:46:55.313Z,60.69
2018-04-20T10:47:35.815Z,63.49
2018-04-20T10:48:16.348Z,60.69
2018-04-20T10:48:56.858Z,63.59
2018-04-20T10:49:37.397Z,65.14
2018-04-20T10:50:17.917Z,61.18
2018-04-20T10:50:58.462Z,57.5
2018-04-20T10:51:39.005Z,52.27
2018-04-20T10:52:19.519Z,51.1
2018-04-20T10:53:00.050Z,50.82
2018-04-20T10:53:40.570Z,49.95
2018-04-20T10:54:21.078Z,50.14
2018-04-20T10:55:01.596Z,57.23
2018-04-20T10:55:42.131Z,62.07
2018-04-20T10:56:22.699Z,58.3
2018-04-20T10:57:03.182Z,59.36
2018-04-20T10:57:43.691Z,60.04
2018-04-20T10:58:24.204Z,62.07
2018-04-20T10:59:04.723Z,65.47
2018-04-20T10:59:45.247Z,67.02
2018-04-20T11:00:25.778Z,68.85
2018-04-20T11:01:06.301Z,65.47
2018-04-20T11:01:46.834Z,60.62
2018-04-20T11:02:27.342Z,66.82
2018-04-20T11:03:07.871Z,65.66
2018-04-20T11:03:48.441Z,63.43
2018-04-20T11:04:28.932Z,65.56
2018-04-20T11:05:09.461Z,67.21
2018-04-20T11:05:50.031Z,63.53
2018-04-20T11:06:30.829Z,63.53
2018-04-20T11:07:11.290Z,60.72
2018-04-20T11:07:51.862Z,55.68
2018-04-20T11:08:32.413Z,62.69
2018-04-20T11:09:12.874Z,63.17
2018-04-20T11:09:53.327Z,58.72
2018-04-20T11:10:33.839Z,59.59
2018-04-20T11:11:14.340Z,55.9
2018-04-20T11:11:54.841Z,54.74
2018-04-20T11:12:35.391Z,55.9
2018-04-20T11:13:15.986Z,54.71
2018-04-20T11:13:56.475Z,56.75
2018-04-20T11:14:36.975Z,59.84
2018-04-20T11:15:17.422Z,58.78
2018-04-20T11:15:57.919Z,58.3
2018-04-20T11:16:38.422Z,62.37
2018-04-20T11:17:18.939Z,65.85
2018-04-20T11:17:59.490Z,62.27
2018-04-20T11:18:40.011Z,55.58
2018-04-20T11:19:20.542Z,54.62
2018-04-20T11:20:01.080Z,55.78
2018-04-20T11:20:41.597Z,56.39
2018-04-20T11:21:22.118Z,56.49
2018-04-20T11:22:02.638Z,53.65
2018-04-20T11:22:43.152Z,58.49
2018-04-20T11:23:23.680Z,55.78
2018-04-20T11:24:04.178Z,56.59
2018-04-20T11:24:44.761Z,62.07
2018-04-20T11:25:25.303Z,60.82
2018-04-20T11:26:05.830Z,55.98
2018-04-20T11:26:46.358Z,58.23
2018-04-20T11:27:26.889Z,56.2
2018-04-20T11:28:07.459Z,60.94
2018-04-20T11:28:48.008Z,60.07
2018-04-20T11:29:28.551Z,61.43
2018-04-20T11:30:09.074Z,63.17
2018-04-20T11:30:49.611Z,68.21
2018-04-20T11:31:30.088Z,64.34
2018-04-20T11:32:10.587Z,68.02
2018-04-20T11:32:51.141Z,66.95
2018-04-20T11:33:31.639Z,68.3
2018-04-20T11:34:12.169Z,70.25
2018-04-20T11:34:52.701Z,63.85
2018-04-20T11:35:33.238Z,63.07
2018-04-20T11:36:13.756Z,69.6
2018-04-20T11:36:54.358Z,65.82
2018-04-20T11:37:34.855Z,64.92
2018-04-20T11:38:15.395Z,64.95
2018-04-20T11:38:55.908Z,64.07
2018-04-20T11:39:36.424Z,61.55
2018-04-20T11:40:16.938Z,62.52
2018-04-20T11:40:57.483Z,70.28
2018-04-20T11:41:38.044Z,70.86
2018-04-20T11:42:18.540Z,66.6
2018-04-20T11:42:59.076Z,65.92
2018-04-20T11:43:39.607Z,68.82
2018-04-20T11:44:20.130Z,64.95
2018-04-20T11:45:00.667Z,68.34
2018-04-20T11:45:41.190Z,68.34
2018-04-20T11:46:21.722Z,64.17
2018-04-20T11:47:02.268Z,63.3
2018-04-20T11:47:42.789Z,63.59
2018-04-20T11:48:23.298Z,62.43
2018-04-20T11:49:03.802Z,60.97
2018-04-20T11:49:44.328Z,63.2
2018-04-20T11:50:24.861Z,63.01
2018-04-20T11:51:05.365Z,62.33
2018-04-20T11:51:45.971Z,63.49
2018-04-20T11:52:26.422Z,57.65
2018-04-20T11:53:06.906Z,58.55
2018-04-20T11:53:47.512Z,62.69
2018-04-20T11:54:27.960Z,56.87
2018-04-20T11:55:08.432Z,53.49
2018-04-20T11:55:48.953Z,53.97
2018-04-20T11:56:29.508Z,59.69
2018-04-20T11:57:09.966Z,55.52
2018-04-20T11:57:50.533Z,57.75
2018-04-20T11:58:31.306Z,57.55
2018-04-20T11:59:11.986Z,53.77
2018-04-20T11:59:52.371Z,50.48
2018-04-20T12:00:32.892Z,48.83
2018-04-20T12:01:13.732Z,48.44
2018-04-20T12:01:53.880Z,50.09
2018-04-20T12:02:34.393Z,52.71
2018-04-20T12:03:14.829Z,56.29
2018-04-20T12:03:55.300Z,56.81
2018-04-20T12:04:35.813Z,52.32
2018-04-20T12:05:16.326Z,50.41
2018-04-20T12:05:56.831Z,48.66
2018-04-20T12:06:37.331Z,49.9
2018-04-20T12:07:17.844Z,53.31
2018-04-20T12:07:58.324Z,50.79
2018-04-20T12:08:38.829Z,48.76
2018-04-20T12:09:19.343Z,53.7
2018-04-20T12:09:59.834Z,55.9
2018-04-20T12:10:40.379Z,55.9
2018-04-20T12:11:20.912Z,55.81
2018-04-20T12:12:01.361Z,56.29
2018-04-20T12:12:41.844Z,50.57
2018-04-20T12:13:22.362Z,50.57
2018-04-20T12:14:02.880Z,54.55
2018-04-20T12:14:43.343Z,49.32
2018-04-20T12:15:23.846Z,49.32
2018-04-20T12:16:04.358Z,49.22
2018-04-20T12:16:44.853Z,51.54
2018-04-20T12:17:25.283Z,56.29
2018-04-20T12:18:05.814Z,53.49
2018-04-20T12:18:46.298Z,51.45
2018-04-20T12:19:26.818Z,49.51
2018-04-20T12:20:07.274Z,47.57
2018-04-20T12:20:47.788Z,46.89
2018-04-20T12:21:28.255Z,48.54
2018-04-20T12:22:08.807Z,48.35
2018-04-20T12:22:49.268Z,51.45
2018-04-20T12:23:29.776Z,53.29
2018-04-20T12:24:10.299Z,51.25
2018-04-20T12:24:50.814Z,53.67
2018-04-20T12:25:31.313Z,48.64
2018-04-20T12:26:11.833Z,54.94